sensor_id;sensor_type;location;lat;lon;timestamp;P1;durP1;ratioP1;P2;durP2;ratioP2
8050;SDS011;4068;42.158;24.732;2023-02-28T00:00:49;12.40;;;8.10;;
8050;SDS011;4068;42.158;24.732;2023-02-28T00:03:15;17.45;;;8.38;;
8050;SDS011;4068;42.158;24.732;2023-02-28T00:05:40;20.42;;;8.55;;
8050;SDS011;4068;42.158;24.732;2023-02-28T00:08:06;16.98;;;9.25;;
8050;SDS011;4068;42.158;24.732;2023-02-28T00:10:32;14.02;;;8.05;;
8050;SDS011;4068;42.158;24.732;2023-02-28T00:13:00;15.75;;;7.97;;
8050;SDS011;4068;42.158;24.732;2023-02-28T00:15:28;12.95;;;9.10;;
8050;SDS011;4068;42.158;24.732;2023-02-28T00:17:53;15.68;;;8.77;;
8050;SDS011;4068;42.158;24.732;2023-02-28T00:20:19;15.10;;;7.75;;
8050;SDS011;4068;42.158;24.732;2023-02-28T00:22:46;16.15;;;9.05;;
8050;SDS011;4068;42.158;24.732;2023-02-28T00:25:14;12.88;;;8.57;;
8050;SDS011;4068;42.158;24.732;2023-02-28T00:27:44;19.38;;;9.48;;
8050;SDS011;4068;42.158;24.732;2023-02-28T00:30:12;23.90;;;9.70;;
8050;SDS011;4068;42.158;24.732;2023-02-28T00:32:43;20.70;;;9.20;;
8050;SDS011;4068;42.158;24.732;2023-02-28T00:35:09;18.13;;;9.30;;
8050;SDS011;4068;42.158;24.732;2023-02-28T00:37:35;12.77;;;8.73;;
8050;SDS011;4068;42.158;24.732;2023-02-28T00:40:01;16.92;;;8.50;;
8050;SDS011;4068;42.158;24.732;2023-02-28T00:42:29;20.05;;;9.68;;
8050;SDS011;4068;42.158;24.732;2023-02-28T00:44:55;15.25;;;8.57;;
8050;SDS011;4068;42.158;24.732;2023-02-28T00:47:20;16.65;;;8.82;;
8050;SDS011;4068;42.158;24.732;2023-02-28T00:49:46;16.23;;;9.05;;
8050;SDS011;4068;42.158;24.732;2023-02-28T00:52:11;22.20;;;9.38;;
8050;SDS011;4068;42.158;24.732;2023-02-28T00:54:37;17.02;;;8.75;;
8050;SDS011;4068;42.158;24.732;2023-02-28T00:57:02;16.42;;;8.77;;
8050;SDS011;4068;42.158;24.732;2023-02-28T00:59:27;19.33;;;8.55;;
8050;SDS011;4068;42.158;24.732;2023-02-28T01:01:53;16.75;;;9.13;;
8050;SDS011;4068;42.158;24.732;2023-02-28T01:04:18;20.17;;;8.90;;
8050;SDS011;4068;42.158;24.732;2023-02-28T01:06:44;15.07;;;8.38;;
8050;SDS011;4068;42.158;24.732;2023-02-28T01:09:09;15.57;;;9.10;;
8050;SDS011;4068;42.158;24.732;2023-02-28T01:11:35;18.13;;;8.60;;
8050;SDS011;4068;42.158;24.732;2023-02-28T01:14:01;15.63;;;8.85;;
8050;SDS011;4068;42.158;24.732;2023-02-28T01:16:27;22.15;;;9.75;;
8050;SDS011;4068;42.158;24.732;2023-02-28T01:18:53;23.20;;;9.27;;
8050;SDS011;4068;42.158;24.732;2023-02-28T01:21:19;29.42;;;9.68;;
8050;SDS011;4068;42.158;24.732;2023-02-28T01:23:46;23.50;;;9.15;;
8050;SDS011;4068;42.158;24.732;2023-02-28T01:26:17;20.30;;;8.63;;
8050;SDS011;4068;42.158;24.732;2023-02-28T01:28:45;15.88;;;8.63;;
8050;SDS011;4068;42.158;24.732;2023-02-28T01:31:10;18.75;;;9.43;;
8050;SDS011;4068;42.158;24.732;2023-02-28T01:33:37;18.10;;;7.97;;
8050;SDS011;4068;42.158;24.732;2023-02-28T01:36:04;16.48;;;8.18;;
8050;SDS011;4068;42.158;24.732;2023-02-28T01:38:31;19.70;;;8.30;;
8050;SDS011;4068;42.158;24.732;2023-02-28T01:40:57;17.83;;;8.00;;
8050;SDS011;4068;42.158;24.732;2023-02-28T01:43:52;18.30;;;8.18;;
8050;SDS011;4068;42.158;24.732;2023-02-28T01:46:14;17.75;;;8.38;;
8050;SDS011;4068;42.158;24.732;2023-02-28T01:48:42;16.02;;;8.00;;
8050;SDS011;4068;42.158;24.732;2023-02-28T01:51:13;16.02;;;8.30;;
8050;SDS011;4068;42.158;24.732;2023-02-28T01:53:42;14.40;;;7.93;;
8050;SDS011;4068;42.158;24.732;2023-02-28T01:56:11;15.20;;;7.55;;
8050;SDS011;4068;42.158;24.732;2023-02-28T01:58:46;25.20;;;8.88;;
8050;SDS011;4068;42.158;24.732;2023-02-28T02:01:13;15.00;;;8.13;;
8050;SDS011;4068;42.158;24.732;2023-02-28T02:03:47;11.75;;;7.68;;
8050;SDS011;4068;42.158;24.732;2023-02-28T02:06:20;19.50;;;8.65;;
8050;SDS011;4068;42.158;24.732;2023-02-28T02:08:50;18.38;;;8.68;;
8050;SDS011;4068;42.158;24.732;2023-02-28T02:11:17;18.45;;;8.20;;
8050;SDS011;4068;42.158;24.732;2023-02-28T02:13:52;14.80;;;7.75;;
8050;SDS011;4068;42.158;24.732;2023-02-28T02:22:21;13.65;;;7.90;;
8050;SDS011;4068;42.158;24.732;2023-02-28T02:44:06;17.73;;;9.65;;
8050;SDS011;4068;42.158;24.732;2023-02-28T02:46:41;17.27;;;9.40;;
8050;SDS011;4068;42.158;24.732;2023-02-28T02:49:11;20.83;;;10.77;;
8050;SDS011;4068;42.158;24.732;2023-02-28T02:51:40;26.35;;;10.43;;
8050;SDS011;4068;42.158;24.732;2023-02-28T02:54:15;18.13;;;9.80;;
8050;SDS011;4068;42.158;24.732;2023-02-28T02:56:42;21.70;;;9.02;;
8050;SDS011;4068;42.158;24.732;2023-02-28T02:59:12;17.92;;;10.20;;
8050;SDS011;4068;42.158;24.732;2023-02-28T03:01:46;18.55;;;9.65;;
8050;SDS011;4068;42.158;24.732;2023-02-28T03:04:20;21.17;;;10.25;;
8050;SDS011;4068;42.158;24.732;2023-02-28T03:06:49;21.98;;;10.10;;
8050;SDS011;4068;42.158;24.732;2023-02-28T03:09:19;20.85;;;9.73;;
8050;SDS011;4068;42.158;24.732;2023-02-28T03:11:46;20.58;;;9.57;;
8050;SDS011;4068;42.158;24.732;2023-02-28T03:14:22;20.40;;;10.35;;
8050;SDS011;4068;42.158;24.732;2023-02-28T03:16:59;21.75;;;11.35;;
8050;SDS011;4068;42.158;24.732;2023-02-28T03:19:47;27.17;;;10.30;;
8050;SDS011;4068;42.158;24.732;2023-02-28T03:33:42;19.13;;;11.02;;
8050;SDS011;4068;42.158;24.732;2023-02-28T03:36:30;21.73;;;11.75;;
8050;SDS011;4068;42.158;24.732;2023-02-28T03:39:08;19.88;;;11.10;;
8050;SDS011;4068;42.158;24.732;2023-02-28T03:41:43;22.10;;;11.35;;
8050;SDS011;4068;42.158;24.732;2023-02-28T03:44:36;27.35;;;11.30;;
8050;SDS011;4068;42.158;24.732;2023-02-28T03:47:10;25.02;;;11.82;;
8050;SDS011;4068;42.158;24.732;2023-02-28T03:49:49;24.55;;;12.57;;
8050;SDS011;4068;42.158;24.732;2023-02-28T03:52:20;20.00;;;11.40;;
8050;SDS011;4068;42.158;24.732;2023-02-28T03:54:51;20.60;;;11.35;;
8050;SDS011;4068;42.158;24.732;2023-02-28T04:02:44;16.90;;;10.77;;
8050;SDS011;4068;42.158;24.732;2023-02-28T04:05:10;22.70;;;11.73;;
8050;SDS011;4068;42.158;24.732;2023-02-28T04:07:36;26.02;;;13.23;;
8050;SDS011;4068;42.158;24.732;2023-02-28T04:10:02;23.08;;;11.65;;
8050;SDS011;4068;42.158;24.732;2023-02-28T04:12:28;25.70;;;12.48;;
8050;SDS011;4068;42.158;24.732;2023-02-28T04:14:54;25.45;;;13.18;;
8050;SDS011;4068;42.158;24.732;2023-02-28T04:17:19;18.40;;;11.30;;
8050;SDS011;4068;42.158;24.732;2023-02-28T04:19:45;21.25;;;11.25;;
8050;SDS011;4068;42.158;24.732;2023-02-28T04:22:10;22.30;;;11.88;;
8050;SDS011;4068;42.158;24.732;2023-02-28T04:24:35;21.17;;;11.20;;
8050;SDS011;4068;42.158;24.732;2023-02-28T04:27:01;21.38;;;10.88;;
8050;SDS011;4068;42.158;24.732;2023-02-28T04:29:28;17.85;;;10.90;;
8050;SDS011;4068;42.158;24.732;2023-02-28T04:31:55;18.65;;;10.85;;
8050;SDS011;4068;42.158;24.732;2023-02-28T04:34:23;23.40;;;11.75;;
8050;SDS011;4068;42.158;24.732;2023-02-28T04:36:49;19.70;;;11.68;;
8050;SDS011;4068;42.158;24.732;2023-02-28T04:39:16;20.80;;;11.10;;
8050;SDS011;4068;42.158;24.732;2023-02-28T04:41:43;25.05;;;12.18;;
8050;SDS011;4068;42.158;24.732;2023-02-28T04:44:09;20.48;;;11.25;;
8050;SDS011;4068;42.158;24.732;2023-02-28T04:46:35;19.10;;;10.57;;
8050;SDS011;4068;42.158;24.732;2023-02-28T04:49:00;19.95;;;11.25;;
8050;SDS011;4068;42.158;24.732;2023-02-28T04:51:25;31.63;;;11.90;;
8050;SDS011;4068;42.158;24.732;2023-02-28T04:53:51;16.48;;;10.00;;
8050;SDS011;4068;42.158;24.732;2023-02-28T04:56:17;18.42;;;10.38;;
8050;SDS011;4068;42.158;24.732;2023-02-28T04:58:43;19.10;;;10.15;;
8050;SDS011;4068;42.158;24.732;2023-02-28T05:01:25;18.98;;;10.82;;
8050;SDS011;4068;42.158;24.732;2023-02-28T05:03:52;22.95;;;10.95;;
8050;SDS011;4068;42.158;24.732;2023-02-28T05:06:22;15.60;;;9.80;;
8050;SDS011;4068;42.158;24.732;2023-02-28T05:08:49;24.17;;;11.10;;
8050;SDS011;4068;42.158;24.732;2023-02-28T05:11:24;22.25;;;10.77;;
8050;SDS011;4068;42.158;24.732;2023-02-28T05:13:50;19.38;;;11.50;;
8050;SDS011;4068;42.158;24.732;2023-02-28T05:16:17;17.30;;;10.27;;
8050;SDS011;4068;42.158;24.732;2023-02-28T05:18:43;17.65;;;10.88;;
8050;SDS011;4068;42.158;24.732;2023-02-28T05:23:56;21.95;;;11.13;;
8050;SDS011;4068;42.158;24.732;2023-02-28T05:26:23;26.30;;;10.95;;
8050;SDS011;4068;42.158;24.732;2023-02-28T05:28:49;32.47;;;12.45;;
8050;SDS011;4068;42.158;24.732;2023-02-28T05:31:15;28.20;;;12.50;;
8050;SDS011;4068;42.158;24.732;2023-02-28T05:33:40;22.08;;;11.98;;
8050;SDS011;4068;42.158;24.732;2023-02-28T05:36:06;22.65;;;11.68;;
8050;SDS011;4068;42.158;24.732;2023-02-28T05:38:32;21.85;;;11.23;;
8050;SDS011;4068;42.158;24.732;2023-02-28T05:40:57;15.25;;;10.20;;
8050;SDS011;4068;42.158;24.732;2023-02-28T05:43:23;21.00;;;10.68;;
8050;SDS011;4068;42.158;24.732;2023-02-28T05:45:49;19.90;;;11.85;;
8050;SDS011;4068;42.158;24.732;2023-02-28T05:48:14;21.02;;;11.73;;
8050;SDS011;4068;42.158;24.732;2023-02-28T05:50:40;20.20;;;11.38;;
8050;SDS011;4068;42.158;24.732;2023-02-28T05:53:07;23.13;;;12.57;;
8050;SDS011;4068;42.158;24.732;2023-02-28T05:55:33;19.50;;;10.57;;
8050;SDS011;4068;42.158;24.732;2023-02-28T05:57:58;21.85;;;10.90;;
8050;SDS011;4068;42.158;24.732;2023-02-28T06:00:24;22.88;;;11.38;;
8050;SDS011;4068;42.158;24.732;2023-02-28T06:02:49;19.38;;;10.52;;
8050;SDS011;4068;42.158;24.732;2023-02-28T06:05:17;21.30;;;11.93;;
8050;SDS011;4068;42.158;24.732;2023-02-28T06:07:43;22.33;;;10.77;;
8050;SDS011;4068;42.158;24.732;2023-02-28T06:10:12;24.55;;;11.05;;
8050;SDS011;4068;42.158;24.732;2023-02-28T06:12:38;21.92;;;10.70;;
8050;SDS011;4068;42.158;24.732;2023-02-28T06:15:06;17.35;;;10.02;;
8050;SDS011;4068;42.158;24.732;2023-02-28T06:17:32;23.95;;;10.45;;
8050;SDS011;4068;42.158;24.732;2023-02-28T06:19:58;21.05;;;11.55;;
8050;SDS011;4068;42.158;24.732;2023-02-28T06:22:23;25.00;;;11.88;;
8050;SDS011;4068;42.158;24.732;2023-02-28T06:24:49;30.70;;;11.15;;
8050;SDS011;4068;42.158;24.732;2023-02-28T06:27:14;19.10;;;10.63;;
8050;SDS011;4068;42.158;24.732;2023-02-28T06:29:39;25.92;;;11.15;;
8050;SDS011;4068;42.158;24.732;2023-02-28T06:32:05;22.38;;;10.40;;
8050;SDS011;4068;42.158;24.732;2023-02-28T06:34:31;28.67;;;11.25;;
8050;SDS011;4068;42.158;24.732;2023-02-28T06:36:58;20.02;;;11.70;;
8050;SDS011;4068;42.158;24.732;2023-02-28T06:39:27;26.48;;;11.80;;
8050;SDS011;4068;42.158;24.732;2023-02-28T06:41:55;23.90;;;11.40;;
8050;SDS011;4068;42.158;24.732;2023-02-28T06:44:22;31.98;;;11.45;;
8050;SDS011;4068;42.158;24.732;2023-02-28T06:46:48;18.55;;;10.35;;
8050;SDS011;4068;42.158;24.732;2023-02-28T06:49:14;24.83;;;11.48;;
8050;SDS011;4068;42.158;24.732;2023-02-28T06:51:41;25.02;;;10.73;;
8050;SDS011;4068;42.158;24.732;2023-02-28T06:54:11;20.05;;;10.70;;
8050;SDS011;4068;42.158;24.732;2023-02-28T06:56:37;22.17;;;10.73;;
8050;SDS011;4068;42.158;24.732;2023-02-28T06:59:03;18.13;;;10.45;;
8050;SDS011;4068;42.158;24.732;2023-02-28T07:01:29;25.60;;;11.07;;
8050;SDS011;4068;42.158;24.732;2023-02-28T07:03:56;21.63;;;11.13;;
8050;SDS011;4068;42.158;24.732;2023-02-28T07:06:22;15.85;;;10.48;;
8050;SDS011;4068;42.158;24.732;2023-02-28T07:08:48;16.58;;;10.48;;
8050;SDS011;4068;42.158;24.732;2023-02-28T07:11:15;18.52;;;9.85;;
8050;SDS011;4068;42.158;24.732;2023-02-28T07:13:40;22.60;;;10.65;;
8050;SDS011;4068;42.158;24.732;2023-02-28T07:16:07;19.67;;;11.13;;
8050;SDS011;4068;42.158;24.732;2023-02-28T07:18:35;28.67;;;11.68;;
8050;SDS011;4068;42.158;24.732;2023-02-28T07:21:01;22.95;;;12.05;;
8050;SDS011;4068;42.158;24.732;2023-02-28T07:23:28;22.65;;;11.52;;
8050;SDS011;4068;42.158;24.732;2023-02-28T07:25:53;24.55;;;12.80;;
8050;SDS011;4068;42.158;24.732;2023-02-28T07:28:19;21.88;;;12.65;;
8050;SDS011;4068;42.158;24.732;2023-02-28T07:30:44;21.23;;;12.18;;
8050;SDS011;4068;42.158;24.732;2023-02-28T07:33:10;25.48;;;13.18;;
8050;SDS011;4068;42.158;24.732;2023-02-28T07:35:35;21.30;;;11.57;;
8050;SDS011;4068;42.158;24.732;2023-02-28T07:38:01;25.50;;;13.40;;
8050;SDS011;4068;42.158;24.732;2023-02-28T07:40:27;25.25;;;13.23;;
8050;SDS011;4068;42.158;24.732;2023-02-28T07:42:53;23.58;;;13.20;;
8050;SDS011;4068;42.158;24.732;2023-02-28T07:45:19;30.50;;;14.02;;
8050;SDS011;4068;42.158;24.732;2023-02-28T07:47:44;29.80;;;13.85;;
8050;SDS011;4068;42.158;24.732;2023-02-28T07:50:12;32.75;;;14.13;;
8050;SDS011;4068;42.158;24.732;2023-02-28T07:52:39;28.48;;;13.35;;
8050;SDS011;4068;42.158;24.732;2023-02-28T07:55:05;33.00;;;13.48;;
8050;SDS011;4068;42.158;24.732;2023-02-28T07:57:32;27.48;;;14.25;;
8050;SDS011;4068;42.158;24.732;2023-02-28T07:59:58;22.63;;;13.07;;
8050;SDS011;4068;42.158;24.732;2023-02-28T08:02:24;31.67;;;13.77;;
8050;SDS011;4068;42.158;24.732;2023-02-28T08:04:49;30.27;;;14.32;;
8050;SDS011;4068;42.158;24.732;2023-02-28T08:07:16;23.13;;;12.30;;
8050;SDS011;4068;42.158;24.732;2023-02-28T08:09:42;22.35;;;12.07;;
8050;SDS011;4068;42.158;24.732;2023-02-28T08:12:09;23.50;;;12.02;;
8050;SDS011;4068;42.158;24.732;2023-02-28T08:14:36;22.98;;;12.43;;
8050;SDS011;4068;42.158;24.732;2023-02-28T08:17:02;24.42;;;12.63;;
8050;SDS011;4068;42.158;24.732;2023-02-28T08:19:28;23.85;;;13.07;;
8050;SDS011;4068;42.158;24.732;2023-02-28T08:21:54;33.92;;;15.43;;
8050;SDS011;4068;42.158;24.732;2023-02-28T08:24:20;27.70;;;14.70;;
8050;SDS011;4068;42.158;24.732;2023-02-28T08:26:45;22.98;;;13.55;;
8050;SDS011;4068;42.158;24.732;2023-02-28T08:29:11;35.45;;;14.38;;
8050;SDS011;4068;42.158;24.732;2023-02-28T08:31:36;49.45;;;15.75;;
8050;SDS011;4068;42.158;24.732;2023-02-28T08:34:08;23.88;;;13.65;;
8050;SDS011;4068;42.158;24.732;2023-02-28T08:36:36;30.08;;;13.68;;
8050;SDS011;4068;42.158;24.732;2023-02-28T08:39:01;27.98;;;13.25;;
8050;SDS011;4068;42.158;24.732;2023-02-28T08:41:27;28.05;;;14.27;;
8050;SDS011;4068;42.158;24.732;2023-02-28T08:43:53;33.10;;;16.75;;
8050;SDS011;4068;42.158;24.732;2023-02-28T08:46:18;37.58;;;15.25;;
8050;SDS011;4068;42.158;24.732;2023-02-28T08:48:44;34.72;;;15.85;;
8050;SDS011;4068;42.158;24.732;2023-02-28T08:51:11;28.92;;;15.00;;
8050;SDS011;4068;42.158;24.732;2023-02-28T08:53:43;33.72;;;14.75;;
8050;SDS011;4068;42.158;24.732;2023-02-28T08:56:10;26.02;;;14.35;;
8050;SDS011;4068;42.158;24.732;2023-02-28T08:58:37;27.65;;;14.32;;
8050;SDS011;4068;42.158;24.732;2023-02-28T09:01:08;25.27;;;14.38;;
8050;SDS011;4068;42.158;24.732;2023-02-28T09:03:35;23.85;;;14.57;;
8050;SDS011;4068;42.158;24.732;2023-02-28T09:06:00;28.65;;;14.52;;
8050;SDS011;4068;42.158;24.732;2023-02-28T09:08:27;24.30;;;13.57;;
8050;SDS011;4068;42.158;24.732;2023-02-28T09:10:57;25.23;;;14.20;;
8050;SDS011;4068;42.158;24.732;2023-02-28T09:13:24;27.15;;;14.45;;
8050;SDS011;4068;42.158;24.732;2023-02-28T09:15:50;27.67;;;15.10;;
8050;SDS011;4068;42.158;24.732;2023-02-28T09:18:16;29.77;;;14.88;;
8050;SDS011;4068;42.158;24.732;2023-02-28T09:20:41;26.90;;;14.60;;
8050;SDS011;4068;42.158;24.732;2023-02-28T09:23:08;27.17;;;15.95;;
8050;SDS011;4068;42.158;24.732;2023-02-28T09:25:35;26.92;;;14.20;;
8050;SDS011;4068;42.158;24.732;2023-02-28T09:28:00;30.90;;;15.43;;
8050;SDS011;4068;42.158;24.732;2023-02-28T09:30:26;29.27;;;16.45;;
8050;SDS011;4068;42.158;24.732;2023-02-28T09:32:52;28.80;;;15.63;;
8050;SDS011;4068;42.158;24.732;2023-02-28T09:35:19;31.92;;;15.23;;
8050;SDS011;4068;42.158;24.732;2023-02-28T09:37:46;32.75;;;14.95;;
8050;SDS011;4068;42.158;24.732;2023-02-28T09:40:12;28.58;;;15.90;;
8050;SDS011;4068;42.158;24.732;2023-02-28T09:42:39;27.00;;;15.35;;
8050;SDS011;4068;42.158;24.732;2023-02-28T09:45:07;27.05;;;15.68;;
8050;SDS011;4068;42.158;24.732;2023-02-28T09:47:48;33.17;;;15.60;;
8050;SDS011;4068;42.158;24.732;2023-02-28T09:52:51;25.88;;;14.68;;
8050;SDS011;4068;42.158;24.732;2023-02-28T09:57:53;28.17;;;16.50;;
8050;SDS011;4068;42.158;24.732;2023-02-28T10:03:24;25.58;;;15.40;;
8050;SDS011;4068;42.158;24.732;2023-02-28T10:08:32;34.58;;;16.45;;
8050;SDS011;4068;42.158;24.732;2023-02-28T10:11:07;30.00;;;16.88;;
8050;SDS011;4068;42.158;24.732;2023-02-28T10:19:02;28.35;;;16.50;;
8050;SDS011;4068;42.158;24.732;2023-02-28T10:21:31;29.95;;;15.80;;
8050;SDS011;4068;42.158;24.732;2023-02-28T10:24:14;35.33;;;17.17;;
8050;SDS011;4068;42.158;24.732;2023-02-28T10:27:00;34.28;;;16.73;;
8050;SDS011;4068;42.158;24.732;2023-02-28T10:29:34;32.83;;;16.67;;
8050;SDS011;4068;42.158;24.732;2023-02-28T10:32:01;36.13;;;18.08;;
8050;SDS011;4068;42.158;24.732;2023-02-28T10:34:28;31.50;;;16.10;;
8050;SDS011;4068;42.158;24.732;2023-02-28T10:36:54;35.55;;;18.10;;
8050;SDS011;4068;42.158;24.732;2023-02-28T10:39:43;32.45;;;16.85;;
8050;SDS011;4068;42.158;24.732;2023-02-28T10:44:52;34.30;;;17.17;;
8050;SDS011;4068;42.158;24.732;2023-02-28T10:47:31;31.13;;;17.67;;
8050;SDS011;4068;42.158;24.732;2023-02-28T10:49:58;29.77;;;17.15;;
8050;SDS011;4068;42.158;24.732;2023-02-28T10:52:38;33.25;;;19.40;;
8050;SDS011;4068;42.158;24.732;2023-02-28T10:58:00;41.38;;;19.20;;
8050;SDS011;4068;42.158;24.732;2023-02-28T11:00:25;34.92;;;18.45;;
8050;SDS011;4068;42.158;24.732;2023-02-28T11:02:58;36.25;;;19.58;;
8050;SDS011;4068;42.158;24.732;2023-02-28T11:07:57;40.60;;;19.95;;
8050;SDS011;4068;42.158;24.732;2023-02-28T11:10:56;37.60;;;20.50;;
8050;SDS011;4068;42.158;24.732;2023-02-28T11:13:33;33.88;;;17.75;;
8050;SDS011;4068;42.158;24.732;2023-02-28T11:16:06;39.00;;;17.65;;
8050;SDS011;4068;42.158;24.732;2023-02-28T11:20:59;34.67;;;19.15;;
8050;SDS011;4068;42.158;24.732;2023-02-28T11:23:27;35.78;;;18.25;;
8050;SDS011;4068;42.158;24.732;2023-02-28T11:25:57;34.90;;;18.48;;
8050;SDS011;4068;42.158;24.732;2023-02-28T11:28:36;37.22;;;18.23;;
8050;SDS011;4068;42.158;24.732;2023-02-28T11:31:14;33.90;;;18.08;;
8050;SDS011;4068;42.158;24.732;2023-02-28T11:38:54;30.33;;;18.45;;
8050;SDS011;4068;42.158;24.732;2023-02-28T11:49:42;36.17;;;18.48;;
8050;SDS011;4068;42.158;24.732;2023-02-28T11:55:35;38.20;;;19.20;;
8050;SDS011;4068;42.158;24.732;2023-02-28T12:04:11;36.25;;;19.23;;
8050;SDS011;4068;42.158;24.732;2023-02-28T12:06:34;34.13;;;18.98;;
8050;SDS011;4068;42.158;24.732;2023-02-28T12:11:52;34.80;;;18.95;;
8050;SDS011;4068;42.158;24.732;2023-02-28T12:14:25;37.95;;;21.17;;
8050;SDS011;4068;42.158;24.732;2023-02-28T12:17:16;41.45;;;21.88;;
8050;SDS011;4068;42.158;24.732;2023-02-28T12:22:58;46.33;;;22.83;;
8050;SDS011;4068;42.158;24.732;2023-02-28T12:25:43;41.35;;;20.65;;
8050;SDS011;4068;42.158;24.732;2023-02-28T12:28:24;38.92;;;22.15;;
8050;SDS011;4068;42.158;24.732;2023-02-28T12:30:55;44.97;;;22.13;;
8050;SDS011;4068;42.158;24.732;2023-02-28T12:33:27;42.47;;;22.70;;
8050;SDS011;4068;42.158;24.732;2023-02-28T12:36:00;40.42;;;22.40;;
8050;SDS011;4068;42.158;24.732;2023-02-28T12:38:36;45.55;;;23.35;;
8050;SDS011;4068;42.158;24.732;2023-02-28T12:41:29;41.85;;;22.52;;
8050;SDS011;4068;42.158;24.732;2023-02-28T12:44:02;52.30;;;23.48;;
8050;SDS011;4068;42.158;24.732;2023-02-28T12:46:51;44.35;;;22.48;;
8050;SDS011;4068;42.158;24.732;2023-02-28T12:49:23;45.05;;;22.95;;
8050;SDS011;4068;42.158;24.732;2023-02-28T12:51:56;47.92;;;23.20;;
8050;SDS011;4068;42.158;24.732;2023-02-28T12:54:44;41.88;;;22.23;;
8050;SDS011;4068;42.158;24.732;2023-02-28T12:57:22;51.88;;;23.65;;
8050;SDS011;4068;42.158;24.732;2023-02-28T13:00:10;41.25;;;23.08;;
8050;SDS011;4068;42.158;24.732;2023-02-28T13:11:22;43.17;;;21.80;;
8050;SDS011;4068;42.158;24.732;2023-02-28T13:13:56;42.08;;;21.88;;
8050;SDS011;4068;42.158;24.732;2023-02-28T13:16:23;46.60;;;22.00;;
8050;SDS011;4068;42.158;24.732;2023-02-28T13:18:48;40.47;;;21.88;;
8050;SDS011;4068;42.158;24.732;2023-02-28T13:21:24;46.85;;;23.33;;
8050;SDS011;4068;42.158;24.732;2023-02-28T13:26:22;42.25;;;21.90;;
8050;SDS011;4068;42.158;24.732;2023-02-28T13:31:14;49.35;;;22.63;;
8050;SDS011;4068;42.158;24.732;2023-02-28T13:38:47;40.13;;;20.98;;
8050;SDS011;4068;42.158;24.732;2023-02-28T13:49:32;38.38;;;20.70;;
8050;SDS011;4068;42.158;24.732;2023-02-28T13:58:04;44.28;;;21.50;;
8050;SDS011;4068;42.158;24.732;2023-02-28T14:00:42;42.20;;;21.88;;
8050;SDS011;4068;42.158;24.732;2023-02-28T14:11:53;37.70;;;21.05;;
8050;SDS011;4068;42.158;24.732;2023-02-28T14:17:05;40.50;;;21.17;;
8050;SDS011;4068;42.158;24.732;2023-02-28T14:19:35;39.67;;;20.48;;
8050;SDS011;4068;42.158;24.732;2023-02-28T14:36:18;28.85;;;17.02;;
8050;SDS011;4068;42.158;24.732;2023-02-28T14:41:29;34.30;;;18.65;;
8050;SDS011;4068;42.158;24.732;2023-02-28T14:44:13;33.47;;;17.95;;
8050;SDS011;4068;42.158;24.732;2023-02-28T14:46:47;35.40;;;18.50;;
8050;SDS011;4068;42.158;24.732;2023-02-28T14:49:17;27.70;;;17.05;;
8050;SDS011;4068;42.158;24.732;2023-02-28T14:51:47;30.63;;;17.45;;
8050;SDS011;4068;42.158;24.732;2023-02-28T14:54:15;28.98;;;16.75;;
8050;SDS011;4068;42.158;24.732;2023-02-28T14:56:43;33.10;;;17.23;;
8050;SDS011;4068;42.158;24.732;2023-02-28T14:59:23;34.78;;;18.17;;
8050;SDS011;4068;42.158;24.732;2023-02-28T15:01:52;35.90;;;18.48;;
8050;SDS011;4068;42.158;24.732;2023-02-28T15:04:32;35.92;;;19.10;;
8050;SDS011;4068;42.158;24.732;2023-02-28T15:07:12;34.08;;;19.05;;
8050;SDS011;4068;42.158;24.732;2023-02-28T15:09:39;34.63;;;19.83;;
8050;SDS011;4068;42.158;24.732;2023-02-28T15:12:05;34.72;;;20.27;;
8050;SDS011;4068;42.158;24.732;2023-02-28T15:14:32;31.67;;;19.42;;
8050;SDS011;4068;42.158;24.732;2023-02-28T15:17:01;35.97;;;20.50;;
8050;SDS011;4068;42.158;24.732;2023-02-28T15:19:34;36.55;;;20.92;;
8050;SDS011;4068;42.158;24.732;2023-02-28T15:22:05;37.67;;;20.33;;
8050;SDS011;4068;42.158;24.732;2023-02-28T15:24:37;32.25;;;19.40;;
8050;SDS011;4068;42.158;24.732;2023-02-28T15:27:09;34.72;;;19.20;;
8050;SDS011;4068;42.158;24.732;2023-02-28T15:29:50;29.30;;;18.15;;
8050;SDS011;4068;42.158;24.732;2023-02-28T15:34:57;34.05;;;17.77;;
8050;SDS011;4068;42.158;24.732;2023-02-28T15:40:10;31.63;;;17.13;;
8050;SDS011;4068;42.158;24.732;2023-02-28T15:42:43;32.35;;;15.73;;
8050;SDS011;4068;42.158;24.732;2023-02-28T15:45:37;29.27;;;15.68;;
8050;SDS011;4068;42.158;24.732;2023-02-28T15:48:13;26.38;;;15.55;;
8050;SDS011;4068;42.158;24.732;2023-02-28T15:50:42;24.15;;;14.77;;
8050;SDS011;4068;42.158;24.732;2023-02-28T15:53:12;28.40;;;14.88;;
8050;SDS011;4068;42.158;24.732;2023-02-28T15:55:40;27.05;;;15.90;;
8050;SDS011;4068;42.158;24.732;2023-02-28T15:58:07;30.80;;;16.33;;
8050;SDS011;4068;42.158;24.732;2023-02-28T16:00:38;30.15;;;15.23;;
8050;SDS011;4068;42.158;24.732;2023-02-28T16:03:22;29.75;;;16.83;;
8050;SDS011;4068;42.158;24.732;2023-02-28T16:06:09;35.53;;;16.60;;
8050;SDS011;4068;42.158;24.732;2023-02-28T16:08:55;32.78;;;17.52;;
8050;SDS011;4068;42.158;24.732;2023-02-28T16:11:20;32.80;;;17.05;;
8050;SDS011;4068;42.158;24.732;2023-02-28T16:13:47;35.83;;;17.90;;
8050;SDS011;4068;42.158;24.732;2023-02-28T16:16:17;32.83;;;17.63;;
8050;SDS011;4068;42.158;24.732;2023-02-28T16:18:47;33.90;;;18.10;;
8050;SDS011;4068;42.158;24.732;2023-02-28T16:21:12;35.35;;;17.65;;
8050;SDS011;4068;42.158;24.732;2023-02-28T16:23:38;34.38;;;18.23;;
8050;SDS011;4068;42.158;24.732;2023-02-28T16:26:04;32.50;;;18.15;;
8050;SDS011;4068;42.158;24.732;2023-02-28T16:28:32;34.00;;;17.98;;
8050;SDS011;4068;42.158;24.732;2023-02-28T16:31:00;33.65;;;18.10;;
8050;SDS011;4068;42.158;24.732;2023-02-28T16:33:28;34.05;;;19.38;;
8050;SDS011;4068;42.158;24.732;2023-02-28T16:35:53;35.58;;;17.05;;
8050;SDS011;4068;42.158;24.732;2023-02-28T16:38:19;32.90;;;17.20;;
8050;SDS011;4068;42.158;24.732;2023-02-28T16:40:44;33.08;;;17.17;;
8050;SDS011;4068;42.158;24.732;2023-02-28T16:43:15;33.03;;;17.42;;
8050;SDS011;4068;42.158;24.732;2023-02-28T16:45:44;31.00;;;17.55;;
8050;SDS011;4068;42.158;24.732;2023-02-28T16:48:14;34.20;;;16.95;;
8050;SDS011;4068;42.158;24.732;2023-02-28T16:50:41;31.63;;;16.50;;
8050;SDS011;4068;42.158;24.732;2023-02-28T16:53:09;31.53;;;17.07;;
8050;SDS011;4068;42.158;24.732;2023-02-28T16:55:35;28.70;;;16.17;;
8050;SDS011;4068;42.158;24.732;2023-02-28T16:58:01;38.23;;;17.90;;
8050;SDS011;4068;42.158;24.732;2023-02-28T17:00:28;30.40;;;16.17;;
8050;SDS011;4068;42.158;24.732;2023-02-28T17:02:56;29.63;;;15.93;;
8050;SDS011;4068;42.158;24.732;2023-02-28T17:05:22;30.13;;;15.63;;
8050;SDS011;4068;42.158;24.732;2023-02-28T17:07:48;28.90;;;16.70;;
8050;SDS011;4068;42.158;24.732;2023-02-28T17:12:43;31.13;;;15.98;;
8050;SDS011;4068;42.158;24.732;2023-02-28T17:15:09;27.53;;;16.13;;
8050;SDS011;4068;42.158;24.732;2023-02-28T17:17:39;29.27;;;16.33;;
8050;SDS011;4068;42.158;24.732;2023-02-28T17:20:05;27.43;;;16.60;;
8050;SDS011;4068;42.158;24.732;2023-02-28T17:22:32;35.93;;;18.13;;
8050;SDS011;4068;42.158;24.732;2023-02-28T17:24:58;47.72;;;22.90;;
8050;SDS011;4068;42.158;24.732;2023-02-28T17:27:24;57.53;;;25.75;;
8050;SDS011;4068;42.158;24.732;2023-02-28T17:29:49;88.10;;;34.80;;
8050;SDS011;4068;42.158;24.732;2023-02-28T17:32:15;22.98;;;14.95;;
8050;SDS011;4068;42.158;24.732;2023-02-28T17:34:40;27.35;;;16.05;;
8050;SDS011;4068;42.158;24.732;2023-02-28T17:37:07;26.85;;;14.98;;